Monterey, CA

1:17 PM PST on December 17, 2014 (GMT -0800)
Monterey Peninsula | Change Station
CLOSE
Current Station
Airport
Location: Monterey,
Elevation: 253 ft
Nearby Weather Stations

Elev 253 ft 36.59 °N, 121.84 °W | Updated 23 minutes ago

Light Rain
Light Rain
52 °F
Feels Like 52 °F
N
0
Wind Variable Wind from North

Today
High -- | Low -- °F
--% Chance of Precip.
Yesterday
High -- | Low -- °F
Precip. -- in
7:13 AM 4:53 PM
Waning Crescent, 20% visible
Pressure 30.12 in
Visibility 3.0 miles
Clouds Few 2800 ft
Mostly Cloudy 4000 ft
Overcast 5000 ft
Dew Point 46 °F
Humidity 80%
Rainfall 0.13 in
Snow Depth Not available.
UV 1 out of 12
Pollen 1.30 out of 12
Air Quality Not available.
Flu Activity Not available.
METAR KMRY 172054Z 00000KT 3SM -RA FEW028 BKN040 OVC050 11/08 A3009 RMK AO2 RAB51 SLP200 P0012 60012 T01110078 58005

More Conditions Fewer Conditions

Pressure 30.12 in
Visibility 3.0 miles
Clouds Few 2800 ft
Mostly Cloudy 4000 ft
Overcast 5000 ft
Dew Point 46 °F
Humidity 80%
Rainfall 0.13 in
Snow Depth Not available.
UV 1 out of 12
Pollen 1.30 out of 12
Air Quality Not available.
Flu Activity Not available.
METAR KMRY 172054Z 00000KT 3SM -RA FEW028 BKN040 OVC050 11/08 A3009 RMK AO2 RAB51 SLP200 P0012 60012 T01110078 58005

More Conditions Fewer Conditions

10-Day Weather Forecast

Almanac

Astronomy

Dec. 17, 2014 Rise Set
Actual Time
Civil Twilight
Nautical Twilight
Astronomical Twilight
Moon
Length of Visible Light
Length of Day
Tomorrow will be .
, % of the Moon is Illuminated

Today's Extremes

State Highs State Lows

Community

WunderPhotos

Upload Photos

1,778,805 photos uploaded!

WunderBlogs® & News

Nearby

Air Quality

  Air Quality AQ Index Pollutant
Not available.

Snow Depth

Station Depth Elevation

Earthquake Activity

City Distance Mag. Time & Date
Minimum magnitude displayed is 2.5.

Coastal Water Temperatures

Place Temperature

Nearby Weather Stations